00ZT1 LFBO-OERK
Flight info
| Callsign | 00ZT1 |
|---|---|
| Flight time | N/A |
| Altitude | 38000 |
| Route | AMOLO DCT DEGOL DCT FJR DCT AMFAC DCT BATIV DCT PELOS DCT IPROM DCT VELEX DCT VAKOR DCT LEVDI T340 EVLIB M871 ARLOS UN4 SALUN N705 MMA L613 KIVIL N710 TAKRI P751 AST V608 HGD M872 WEJ L604 GAS G662 KUNEK |
| Aircraft | A339/H-SADE1E2E3GHIJ3J5M1P2RWXY/LB2D1 |
Departure
| Time | 2026-04-27 17:38 |
|---|---|
| Airport | Toulouse-Blagnac Airport (LFBO) |
Arrival
| Time | N/A |
|---|---|
| Airport | King Khalid International Airport (OERK) |
| Time | Latitude | Longitude | Altitude | Speed | Heading |
|---|---|---|---|---|---|
| 2026-04-27 16:59 | 43.63430 | 1.34963 | 506 ft | 0 kts | 232° |
| 2026-04-27 17:23 | 43.63432 | 1.34966 | 505 ft | 1 kts | 232° |
| 2026-04-27 17:23 | 43.63441 | 1.34982 | 505 ft | 2 kts | 232° |
| 2026-04-27 17:23 | 43.63450 | 1.34999 | 504 ft | 2 kts | 232° |
| 2026-04-27 17:23 | 43.63457 | 1.35010 | 504 ft | 1 kts | 232° |
| 2026-04-27 17:24 | 43.63466 | 1.35025 | 503 ft | 2 kts | 217° |
| 2026-04-27 17:24 | 43.63479 | 1.35035 | 503 ft | 2 kts | 201° |
| 2026-04-27 17:24 | 43.63492 | 1.35041 | 503 ft | 2 kts | 187° |
| 2026-04-27 17:24 | 43.63506 | 1.35041 | 503 ft | 2 kts | 172° |
| 2026-04-27 17:25 | 43.63521 | 1.35036 | 503 ft | 2 kts | 156° |
| 2026-04-27 17:25 | 43.63528 | 1.35031 | 503 ft | 0 kts | 149° |
| 2026-04-27 17:28 | 43.63464 | 1.35093 | 503 ft | 0 kts | 140° |
| 2026-04-27 17:28 | 43.63449 | 1.35108 | 504 ft | 0 kts | 145° |
| 2026-04-27 17:29 | 43.63434 | 1.35122 | 504 ft | 5 kts | 143° |
| 2026-04-27 17:29 | 43.63393 | 1.35166 | 505 ft | 10 kts | 144° |
| 2026-04-27 17:29 | 43.63323 | 1.35234 | 506 ft | 14 kts | 142° |
| 2026-04-27 17:29 | 43.63228 | 1.35325 | 508 ft | 19 kts | 148° |
| 2026-04-27 17:30 | 43.63107 | 1.35434 | 512 ft | 23 kts | 145° |
| 2026-04-27 17:30 | 43.62974 | 1.35508 | 516 ft | 0 kts | 128° |
| 2026-04-27 17:31 | 43.62970 | 1.35517 | 516 ft | 2 kts | 125° |
| 2026-04-27 17:31 | 43.62956 | 1.35549 | 516 ft | 5 kts | 123° |
| 2026-04-27 17:31 | 43.62924 | 1.35593 | 517 ft | 7 kts | 141° |
| 2026-04-27 17:32 | 43.62878 | 1.35638 | 518 ft | 8 kts | 147° |
| 2026-04-27 17:32 | 43.62760 | 1.35772 | 516 ft | 15 kts | 127° |
| 2026-04-27 17:32 | 43.62686 | 1.35897 | 514 ft | 19 kts | 139° |
| 2026-04-27 17:33 | 43.62603 | 1.36031 | 511 ft | 19 kts | 94° |
| 2026-04-27 17:33 | 43.62550 | 1.36219 | 505 ft | 24 kts | 138° |
| 2026-04-27 17:33 | 43.62408 | 1.36369 | 504 ft | 26 kts | 141° |
| 2026-04-27 17:33 | 43.62255 | 1.36528 | 504 ft | 28 kts | 144° |
| 2026-04-27 17:34 | 43.62091 | 1.36702 | 505 ft | 30 kts | 143° |
| 2026-04-27 17:34 | 43.61925 | 1.36879 | 507 ft | 31 kts | 143° |
| 2026-04-27 17:34 | 43.61871 | 1.37109 | 506 ft | 28 kts | 61° |
| 2026-04-27 17:34 | 43.61975 | 1.37327 | 506 ft | 24 kts | 50° |
| 2026-04-27 17:35 | 43.62011 | 1.37510 | 506 ft | 17 kts | 122° |
| 2026-04-27 17:35 | 43.61947 | 1.37604 | 508 ft | 11 kts | 137° |
| 2026-04-27 17:35 | 43.61900 | 1.37656 | 508 ft | 6 kts | 142° |
| 2026-04-27 17:35 | 43.61876 | 1.37681 | 509 ft | 2 kts | 144° |
| 2026-04-27 17:36 | 43.61867 | 1.37690 | 509 ft | 1 kts | 143° |
| 2026-04-27 17:36 | 43.61842 | 1.37717 | 510 ft | 7 kts | 141° |
| 2026-04-27 17:36 | 43.61788 | 1.37778 | 510 ft | 13 kts | 141° |
| 2026-04-27 17:36 | 43.61695 | 1.37864 | 510 ft | 19 kts | 149° |
| 2026-04-27 17:37 | 43.61617 | 1.37969 | 510 ft | 7 kts | 63° |
| 2026-04-27 17:37 | 43.61653 | 1.37941 | 510 ft | 1 kts | 302° |
| 2026-04-27 17:37 | 43.61678 | 1.37912 | 510 ft | 7 kts | 318° |
| 2026-04-27 17:37 | 43.61856 | 1.37718 | 509 ft | 69 kts | 321° |
| 2026-04-27 17:38 | 43.62426 | 1.37161 | 511 ft | 126 kts | 324° |
| 2026-04-27 17:38 | 43.63166 | 1.36322 | 702 ft | 151 kts | 321° |
| 2026-04-27 17:38 | 43.64002 | 1.35475 | 1255 ft | 144 kts | 327° |
| 2026-04-27 17:38 | 43.64793 | 1.34947 | 2024 ft | 115 kts | 341° |
| 2026-04-27 17:39 | 43.65595 | 1.34585 | 2028 ft | 149 kts | 340° |
| 2026-04-27 17:39 | 43.66691 | 1.34138 | 2563 ft | 193 kts | 348° |
| 2026-04-27 17:39 | 43.68209 | 1.34257 | 3221 ft | 249 kts | 21° |
| 2026-04-27 17:39 | 43.69514 | 1.35860 | 4831 ft | 274 kts | 63° |
| 2026-04-27 17:40 | 43.69798 | 1.38306 | 6907 ft | 282 kts | 89° |
| 2026-04-27 17:40 | 43.69694 | 1.41191 | 8047 ft | 326 kts | 94° |
| 2026-04-27 17:40 | 43.69323 | 1.44361 | 9513 ft | 356 kts | 102° |
| 2026-04-27 17:40 | 43.68689 | 1.47824 | 10675 ft | 392 kts | 103° |
| 2026-04-27 17:41 | 43.68114 | 1.51544 | 12211 ft | 411 kts | 99° |
| 2026-04-27 17:41 | 43.67697 | 1.55419 | 13968 ft | 422 kts | 96° |
| 2026-04-27 17:41 | 43.67443 | 1.59439 | 15717 ft | 431 kts | 93° |
| 2026-04-27 17:41 | 43.67378 | 1.63541 | 17403 ft | 438 kts | 88° |
| 2026-04-27 17:42 | 43.67818 | 1.67621 | 19173 ft | 439 kts | 73° |
| 2026-04-27 17:42 | 43.69218 | 1.71249 | 21115 ft | 430 kts | 49° |
| 2026-04-27 17:42 | 43.71477 | 1.73657 | 23147 ft | 412 kts | 23° |
| 2026-04-27 17:42 | 43.73576 | 1.75163 | 22716 ft | 450 kts | 33° |